createdAt,value
2022-08-23T00:00:36.490Z,5.95
2022-08-23T00:03:41.825Z,4.75
2022-08-23T00:06:47.679Z,6.20
2022-08-23T00:09:55.381Z,5.15
2022-08-23T00:13:02.587Z,6.58
2022-08-23T00:16:10.081Z,4.97
2022-08-23T00:19:17.255Z,5.50
2022-08-23T00:22:24.448Z,4.83
2022-08-23T00:25:31.112Z,5.10
2022-08-23T00:28:37.804Z,5.10
2022-08-23T00:31:43.862Z,5.33
2022-08-23T00:34:49.621Z,5.53
2022-08-23T00:38:31.626Z,4.95
2022-08-23T00:41:06.440Z,5.62
2022-08-23T00:44:30.731Z,4.42
2022-08-23T00:47:48.761Z,4.67
2022-08-23T00:51:00.366Z,5.20
2022-08-23T00:54:12.776Z,5.75
2022-08-23T00:57:26.038Z,4.37
2022-08-23T01:00:32.471Z,4.53
2022-08-23T01:03:40.796Z,4.92
2022-08-23T01:07:30.571Z,7.67
2022-08-23T01:10:50.664Z,7.17
2022-08-23T01:14:13.516Z,5.10
2022-08-23T01:17:32.996Z,5.40
2022-08-23T01:20:40.091Z,6.03
2022-08-23T01:24:07.128Z,5.65
2022-08-23T01:27:15.040Z,5.60
2022-08-23T01:30:23.243Z,6.08
2022-08-23T01:33:29.116Z,4.78
2022-08-23T01:36:35.127Z,5.15
2022-08-23T01:39:41.661Z,5.28
2022-08-23T01:42:48.521Z,5.25
2022-08-23T01:45:53.551Z,4.45
2022-08-23T01:49:06.534Z,5.22
2022-08-23T01:52:10.800Z,4.92
2022-08-23T01:55:16.924Z,5.53
2022-08-23T01:58:22.211Z,6.05
2022-08-23T02:01:29.219Z,5.35
2022-08-23T02:04:35.680Z,5.20
2022-08-23T02:07:45.820Z,5.47
2022-08-23T02:10:52.563Z,6.15
2022-08-23T02:13:59.353Z,4.80
2022-08-23T02:17:08.730Z,5.12
2022-08-23T02:20:15.805Z,4.62
2022-08-23T02:23:22.279Z,6.10
2022-08-23T02:26:30.961Z,5.55
2022-08-23T02:29:44.025Z,4.72
2022-08-23T02:32:50.972Z,6.55
2022-08-23T02:35:57.154Z,5.30
2022-08-23T02:39:02.923Z,5.17
2022-08-23T02:42:11.762Z,5.78
2022-08-23T02:45:18.614Z,5.47
2022-08-23T02:48:24.913Z,6.33
2022-08-23T02:51:33.614Z,5.40
2022-08-23T02:54:40.096Z,5.72
2022-08-23T02:57:46.881Z,6.28
2022-08-23T03:00:54.058Z,6.10
2022-08-23T03:03:59.822Z,5.10
2022-08-23T03:07:07.789Z,5.85
2022-08-23T03:10:14.183Z,5.75
2022-08-23T03:13:21.798Z,5.92
2022-08-23T03:16:30.196Z,5.95
2022-08-23T03:19:35.458Z,5.65
2022-08-23T03:22:41.696Z,6.47
2022-08-23T03:25:48.794Z,5.58
2022-08-23T03:28:57.506Z,5.12
2022-08-23T03:32:05.924Z,5.22
2022-08-23T03:35:15.196Z,5.25
2022-08-23T03:38:22.702Z,6.08
2022-08-23T03:41:30.681Z,6.05
2022-08-23T03:44:36.866Z,6.22
2022-08-23T03:47:44.052Z,5.83
2022-08-23T03:50:49.889Z,5.97
2022-08-23T03:53:58.425Z,5.70
2022-08-23T03:57:16.857Z,6.15
2022-08-23T04:00:25.765Z,6.78
2022-08-23T04:03:32.570Z,5.60
2022-08-23T04:06:40.050Z,5.05
2022-08-23T04:09:45.922Z,5.72
2022-08-23T04:12:54.785Z,6.22
2022-08-23T04:16:04.085Z,5.90
2022-08-23T04:19:13.335Z,5.22
2022-08-23T04:22:30.033Z,5.97
2022-08-23T04:25:39.227Z,6.15
2022-08-23T04:28:45.825Z,6.62
2022-08-23T04:31:53.246Z,5.47
2022-08-23T04:35:05.722Z,5.78
2022-08-23T04:38:24.256Z,5.35
2022-08-23T04:41:40.097Z,4.70
2022-08-23T04:44:46.115Z,5.10
2022-08-23T04:47:52.536Z,5.10
2022-08-23T04:50:59.111Z,6.30
2022-08-23T04:54:06.769Z,5.53
2022-08-23T04:57:16.719Z,5.78
2022-08-23T05:00:32.680Z,5.92
2022-08-23T05:03:42.460Z,8.33
2022-08-23T05:06:55.108Z,6.08
2022-08-23T05:10:06.736Z,5.10
2022-08-23T05:13:17.785Z,4.53
2022-08-23T05:16:25.613Z,4.75
2022-08-23T05:19:36.067Z,4.83
2022-08-23T05:22:49.171Z,4.40
2022-08-23T05:26:14.776Z,4.20
2022-08-23T05:29:21.977Z,4.37
2022-08-23T05:32:44.333Z,4.92
2022-08-23T05:35:51.938Z,4.58
2022-08-23T05:39:00.220Z,4.17
2022-08-23T05:42:09.611Z,4.78
2022-08-23T05:45:21.716Z,4.12
2022-08-23T05:48:27.323Z,3.72
2022-08-23T05:51:46.398Z,4.17
2022-08-23T05:55:01.467Z,4.40
2022-08-23T05:58:18.941Z,4.08
2022-08-23T06:01:28.795Z,4.20
2022-08-23T06:04:40.718Z,4.37
2022-08-23T06:07:52.209Z,3.52
2022-08-23T06:11:04.517Z,3.75
2022-08-23T06:14:18.761Z,3.85
2022-08-23T06:17:26.741Z,3.65
2022-08-23T06:20:33.838Z,4.40
2022-08-23T06:23:42.333Z,3.98
2022-08-23T06:26:58.124Z,3.60
2022-08-23T06:30:07.001Z,3.92
2022-08-23T06:33:20.099Z,3.85
2022-08-23T06:36:37.408Z,7.12
2022-08-23T06:39:54.687Z,4.83
2022-08-23T06:43:14.442Z,4.62
2022-08-23T06:46:29.912Z,4.28
2022-08-23T06:49:38.710Z,3.77
2022-08-23T06:52:47.104Z,4.03
2022-08-23T06:55:56.347Z,4.03
2022-08-23T06:59:17.517Z,3.12
2022-08-23T07:02:35.018Z,4.20
2022-08-23T07:05:59.219Z,3.60
2022-08-23T07:09:13.236Z,3.98
2022-08-23T07:12:24.216Z,3.80
2022-08-23T07:15:40.162Z,4.30
2022-08-23T07:18:53.192Z,3.85
2022-08-23T07:22:03.759Z,3.83
2022-08-23T07:25:14.124Z,3.72
2022-08-23T07:28:32.570Z,3.92
2022-08-23T07:31:43.028Z,3.65
2022-08-23T07:34:52.067Z,4.30
2022-08-23T07:38:00.557Z,4.03
2022-08-23T07:41:12.664Z,4.33
2022-08-23T07:44:27.049Z,4.50
2022-08-23T07:50:54.534Z,4.90
2022-08-23T07:54:02.054Z,4.10
2022-08-23T07:57:16.699Z,3.98
2022-08-23T08:00:29.265Z,3.77
2022-08-23T08:03:38.465Z,4.08
2022-08-23T08:07:17.812Z,3.98
2022-08-23T08:10:09.056Z,4.47
2022-08-23T08:13:18.666Z,3.62
2022-08-23T08:16:42.703Z,3.02
2022-08-23T08:19:52.565Z,3.72
2022-08-23T08:23:07.733Z,4.12
2022-08-23T08:26:33.104Z,3.75
2022-08-23T08:29:49.851Z,3.30
2022-08-23T08:32:56.438Z,3.75
2022-08-23T08:36:08.466Z,4.50
2022-08-23T08:39:18.825Z,3.17
2022-08-23T08:42:43.697Z,3.05
2022-08-23T08:46:23.320Z,4.95
2022-08-23T08:53:03.953Z,3.30
2022-08-23T08:56:32.383Z,3.30
2022-08-23T08:59:52.267Z,3.05
2022-08-23T09:03:07.281Z,3.60
2022-08-23T09:06:36.469Z,3.17
2022-08-23T09:09:56.686Z,4.90
2022-08-23T09:13:24.482Z,3.83
2022-08-23T09:17:08.106Z,3.08
2022-08-23T09:20:19.459Z,3.95
2022-08-23T09:23:42.728Z,3.70
2022-08-23T09:26:52.706Z,3.70
2022-08-23T09:30:12.701Z,4.22
2022-08-23T09:33:39.031Z,4.47
2022-08-23T09:36:52.388Z,3.52
2022-08-23T09:40:14.152Z,3.70
2022-08-23T09:43:32.814Z,4.35
2022-08-23T09:46:52.422Z,4.58
2022-08-23T09:50:03.825Z,4.42
2022-08-23T09:53:29.042Z,3.62
2022-08-23T09:56:44.012Z,3.70
2022-08-23T10:00:00.534Z,4.05
2022-08-23T10:03:49.747Z,4.72
2022-08-23T10:07:03.099Z,4.22
2022-08-23T10:10:15.573Z,7.35
2022-08-23T10:13:23.811Z,3.75
2022-08-23T10:17:01.687Z,3.37
2022-08-23T10:20:32.265Z,3.60
2022-08-23T10:23:47.837Z,3.50
2022-08-23T10:27:37.474Z,4.30
2022-08-23T10:30:51.472Z,4.12
2022-08-23T10:34:32.540Z,3.67
2022-08-23T10:38:04.786Z,4.08
2022-08-23T10:41:31.374Z,3.83
2022-08-23T10:45:10.766Z,3.95
2022-08-23T10:48:34.549Z,3.80
2022-08-23T10:51:55.584Z,3.90
2022-08-23T10:55:17.474Z,3.90
2022-08-23T10:58:35.849Z,2.98
2022-08-23T11:02:15.400Z,3.67
2022-08-23T11:05:46.211Z,4.12
2022-08-23T11:08:57.493Z,3.70
2022-08-23T11:12:19.734Z,3.60
2022-08-23T11:15:44.742Z,3.95
2022-08-23T11:19:01.945Z,3.08
2022-08-23T11:22:14.545Z,3.75
2022-08-23T11:25:34.877Z,3.80
2022-08-23T11:28:52.041Z,3.72
2022-08-23T11:32:22.399Z,3.40
2022-08-23T11:35:51.833Z,3.22
2022-08-23T11:39:09.585Z,3.30
2022-08-23T11:42:17.127Z,3.20
2022-08-23T11:45:46.124Z,3.50
2022-08-23T11:48:57.700Z,3.72
2022-08-23T11:52:43.855Z,3.80
2022-08-23T11:56:05.278Z,3.60
2022-08-23T11:59:41.588Z,3.85
2022-08-23T12:02:58.600Z,3.50
2022-08-23T12:06:18.311Z,3.55
2022-08-23T12:09:41.980Z,3.55
2022-08-23T12:13:06.764Z,3.12
2022-08-23T12:16:36.872Z,4.00
2022-08-23T12:19:54.364Z,3.60
